sensor_id;sensor_type;location;lat;lon;timestamp;P1;durP1;ratioP1;P2;durP2;ratioP2
27985;SDS011;15453;53.692;10.168;2022-12-01T00:02:15;80.20;;;44.70;;
27985;SDS011;15453;53.692;10.168;2022-12-01T00:04:40;82.68;;;43.90;;
27985;SDS011;15453;53.692;10.168;2022-12-01T00:07:05;84.03;;;47.67;;
27985;SDS011;15453;53.692;10.168;2022-12-01T00:09:30;83.47;;;45.83;;
27985;SDS011;15453;53.692;10.168;2022-12-01T00:12:14;84.00;;;46.47;;
27985;SDS011;15453;53.692;10.168;2022-12-01T00:14:40;85.22;;;47.47;;
27985;SDS011;15453;53.692;10.168;2022-12-01T00:17:05;83.82;;;44.60;;
27985;SDS011;15453;53.692;10.168;2022-12-01T00:19:30;94.80;;;49.63;;
27985;SDS011;15453;53.692;10.168;2022-12-01T00:21:56;79.90;;;44.78;;
27985;SDS011;15453;53.692;10.168;2022-12-01T00:24:21;90.38;;;47.95;;
27985;SDS011;15453;53.692;10.168;2022-12-01T00:26:47;78.70;;;44.33;;
27985;SDS011;15453;53.692;10.168;2022-12-01T00:29:13;83.20;;;46.10;;
27985;SDS011;15453;53.692;10.168;2022-12-01T00:31:38;84.95;;;45.90;;
27985;SDS011;15453;53.692;10.168;2022-12-01T00:34:04;86.90;;;47.50;;
27985;SDS011;15453;53.692;10.168;2022-12-01T00:36:29;92.35;;;50.10;;
27985;SDS011;15453;53.692;10.168;2022-12-01T00:38:54;88.57;;;47.13;;
27985;SDS011;15453;53.692;10.168;2022-12-01T00:41:20;91.90;;;48.40;;
27985;SDS011;15453;53.692;10.168;2022-12-01T00:43:47;86.45;;;47.10;;
27985;SDS011;15453;53.692;10.168;2022-12-01T00:46:13;87.60;;;46.53;;
27985;SDS011;15453;53.692;10.168;2022-12-01T00:48:38;83.60;;;47.78;;
27985;SDS011;15453;53.692;10.168;2022-12-01T00:51:04;91.40;;;48.30;;
27985;SDS011;15453;53.692;10.168;2022-12-01T00:53:29;93.47;;;49.53;;
27985;SDS011;15453;53.692;10.168;2022-12-01T00:55:54;82.90;;;44.13;;
27985;SDS011;15453;53.692;10.168;2022-12-01T00:58:20;93.05;;;50.10;;
27985;SDS011;15453;53.692;10.168;2022-12-01T01:00:47;82.05;;;44.60;;
27985;SDS011;15453;53.692;10.168;2022-12-01T01:03:12;87.18;;;47.75;;
27985;SDS011;15453;53.692;10.168;2022-12-01T01:05:38;87.95;;;49.10;;
27985;SDS011;15453;53.692;10.168;2022-12-01T01:08:05;90.90;;;48.42;;
27985;SDS011;15453;53.692;10.168;2022-12-01T01:10:31;89.28;;;48.28;;
27985;SDS011;15453;53.692;10.168;2022-12-01T01:12:56;90.45;;;48.70;;
27985;SDS011;15453;53.692;10.168;2022-12-01T01:15:22;83.05;;;44.88;;
27985;SDS011;15453;53.692;10.168;2022-12-01T01:17:47;99.72;;;50.90;;
27985;SDS011;15453;53.692;10.168;2022-12-01T01:20:12;93.32;;;49.63;;
27985;SDS011;15453;53.692;10.168;2022-12-01T01:22:37;93.57;;;49.38;;
27985;SDS011;15453;53.692;10.168;2022-12-01T01:25:03;85.45;;;46.33;;
27985;SDS011;15453;53.692;10.168;2022-12-01T01:27:28;89.05;;;47.65;;
27985;SDS011;15453;53.692;10.168;2022-12-01T01:29:53;85.18;;;45.97;;
27985;SDS011;15453;53.692;10.168;2022-12-01T01:32:19;89.55;;;47.92;;
27985;SDS011;15453;53.692;10.168;2022-12-01T01:34:44;91.15;;;48.78;;
27985;SDS011;15453;53.692;10.168;2022-12-01T01:37:10;89.63;;;48.08;;
27985;SDS011;15453;53.692;10.168;2022-12-01T01:39:35;90.43;;;48.22;;
27985;SDS011;15453;53.692;10.168;2022-12-01T01:42:00;90.22;;;49.15;;
27985;SDS011;15453;53.692;10.168;2022-12-01T01:44:39;80.25;;;43.40;;
27985;SDS011;15453;53.692;10.168;2022-12-01T01:47:10;77.80;;;42.97;;
27985;SDS011;15453;53.692;10.168;2022-12-01T01:49:36;83.18;;;45.65;;
27985;SDS011;15453;53.692;10.168;2022-12-01T01:52:02;89.78;;;48.22;;
27985;SDS011;15453;53.692;10.168;2022-12-01T01:54:51;87.43;;;47.13;;
27985;SDS011;15453;53.692;10.168;2022-12-01T01:57:18;94.93;;;50.45;;
27985;SDS011;15453;53.692;10.168;2022-12-01T01:59:49;93.60;;;50.00;;
27985;SDS011;15453;53.692;10.168;2022-12-01T02:02:19;78.22;;;42.97;;
27985;SDS011;15453;53.692;10.168;2022-12-01T02:04:47;89.32;;;46.85;;
27985;SDS011;15453;53.692;10.168;2022-12-01T02:07:15;86.50;;;44.53;;
27985;SDS011;15453;53.692;10.168;2022-12-01T02:09:42;95.45;;;48.15;;
27985;SDS011;15453;53.692;10.168;2022-12-01T02:15:04;84.38;;;45.22;;
27985;SDS011;15453;53.692;10.168;2022-12-01T02:20:31;90.47;;;47.85;;
27985;SDS011;15453;53.692;10.168;2022-12-01T02:26:22;90.97;;;47.10;;
27985;SDS011;15453;53.692;10.168;2022-12-01T02:31:59;83.85;;;42.33;;
27985;SDS011;15453;53.692;10.168;2022-12-01T02:34:45;88.25;;;45.88;;
27985;SDS011;15453;53.692;10.168;2022-12-01T02:37:26;81.55;;;44.38;;
27985;SDS011;15453;53.692;10.168;2022-12-01T02:40:17;94.20;;;48.88;;
27985;SDS011;15453;53.692;10.168;2022-12-01T02:42:53;84.32;;;42.88;;
27985;SDS011;15453;53.692;10.168;2022-12-01T02:45:32;89.15;;;45.65;;
27985;SDS011;15453;53.692;10.168;2022-12-01T02:48:10;88.22;;;47.38;;
27985;SDS011;15453;53.692;10.168;2022-12-01T02:50:40;89.10;;;48.65;;
27985;SDS011;15453;53.692;10.168;2022-12-01T02:53:06;87.20;;;45.08;;
27985;SDS011;15453;53.692;10.168;2022-12-01T02:55:33;87.03;;;46.90;;
27985;SDS011;15453;53.692;10.168;2022-12-01T02:57:58;93.43;;;47.13;;
27985;SDS011;15453;53.692;10.168;2022-12-01T03:00:24;90.40;;;47.22;;
27985;SDS011;15453;53.692;10.168;2022-12-01T03:02:53;92.78;;;48.10;;
27985;SDS011;15453;53.692;10.168;2022-12-01T03:09:07;86.35;;;45.45;;
27985;SDS011;15453;53.692;10.168;2022-12-01T03:11:18;87.93;;;44.78;;
27985;SDS011;15453;53.692;10.168;2022-12-01T03:14:08;91.90;;;47.63;;
27985;SDS011;15453;53.692;10.168;2022-12-01T03:16:48;90.38;;;47.20;;
27985;SDS011;15453;53.692;10.168;2022-12-01T03:19:17;97.78;;;47.97;;
27985;SDS011;15453;53.692;10.168;2022-12-01T03:24:53;91.20;;;46.60;;
27985;SDS011;15453;53.692;10.168;2022-12-01T03:27:21;98.30;;;50.30;;
27985;SDS011;15453;53.692;10.168;2022-12-01T03:29:53;92.13;;;46.58;;
27985;SDS011;15453;53.692;10.168;2022-12-01T03:32:23;90.05;;;45.88;;
27985;SDS011;15453;53.692;10.168;2022-12-01T03:34:55;96.47;;;50.08;;
27985;SDS011;15453;53.692;10.168;2022-12-01T03:39:56;82.35;;;44.55;;
27985;SDS011;15453;53.692;10.168;2022-12-01T03:42:24;87.05;;;44.28;;
27985;SDS011;15453;53.692;10.168;2022-12-01T03:44:53;97.47;;;50.38;;
27985;SDS011;15453;53.692;10.168;2022-12-01T03:47:23;87.55;;;45.67;;
27985;SDS011;15453;53.692;10.168;2022-12-01T03:49:50;91.88;;;46.83;;
27985;SDS011;15453;53.692;10.168;2022-12-01T03:52:24;90.63;;;45.70;;
27985;SDS011;15453;53.692;10.168;2022-12-01T03:57:29;93.43;;;45.63;;
27985;SDS011;15453;53.692;10.168;2022-12-01T03:59:59;94.60;;;49.28;;
27985;SDS011;15453;53.692;10.168;2022-12-01T04:02:26;83.07;;;44.15;;
27985;SDS011;15453;53.692;10.168;2022-12-01T04:04:52;97.00;;;48.63;;
27985;SDS011;15453;53.692;10.168;2022-12-01T04:07:17;101.22;;;50.63;;
27985;SDS011;15453;53.692;10.168;2022-12-01T04:09:43;95.97;;;49.13;;
27985;SDS011;15453;53.692;10.168;2022-12-01T04:12:09;90.25;;;46.10;;
27985;SDS011;15453;53.692;10.168;2022-12-01T04:14:55;96.45;;;48.08;;
27985;SDS011;15453;53.692;10.168;2022-12-01T04:17:21;87.70;;;45.58;;
27985;SDS011;15453;53.692;10.168;2022-12-01T04:19:47;93.50;;;48.42;;
27985;SDS011;15453;53.692;10.168;2022-12-01T04:22:12;88.47;;;46.60;;
27985;SDS011;15453;53.692;10.168;2022-12-01T04:24:37;91.80;;;45.40;;
27985;SDS011;15453;53.692;10.168;2022-12-01T04:27:03;97.13;;;50.05;;
27985;SDS011;15453;53.692;10.168;2022-12-01T04:29:28;99.50;;;50.38;;
27985;SDS011;15453;53.692;10.168;2022-12-01T04:31:53;91.85;;;48.08;;
27985;SDS011;15453;53.692;10.168;2022-12-01T04:34:19;90.13;;;46.20;;
27985;SDS011;15453;53.692;10.168;2022-12-01T04:36:44;100.72;;;49.83;;
27985;SDS011;15453;53.692;10.168;2022-12-01T04:39:09;100.47;;;47.85;;
27985;SDS011;15453;53.692;10.168;2022-12-01T04:41:34;102.65;;;51.45;;
27985;SDS011;15453;53.692;10.168;2022-12-01T04:43:59;107.10;;;52.53;;
27985;SDS011;15453;53.692;10.168;2022-12-01T04:46:25;99.97;;;49.10;;
27985;SDS011;15453;53.692;10.168;2022-12-01T04:48:50;94.80;;;47.22;;
27985;SDS011;15453;53.692;10.168;2022-12-01T04:51:16;97.75;;;47.30;;
27985;SDS011;15453;53.692;10.168;2022-12-01T04:53:41;96.90;;;48.20;;
27985;SDS011;15453;53.692;10.168;2022-12-01T04:56:07;98.35;;;49.60;;
27985;SDS011;15453;53.692;10.168;2022-12-01T04:58:32;105.68;;;50.70;;
27985;SDS011;15453;53.692;10.168;2022-12-01T05:01:01;94.88;;;46.17;;
27985;SDS011;15453;53.692;10.168;2022-12-01T05:03:28;98.10;;;48.20;;
27985;SDS011;15453;53.692;10.168;2022-12-01T05:06:06;105.95;;;52.38;;
27985;SDS011;15453;53.692;10.168;2022-12-01T05:08:33;103.15;;;51.75;;
27985;SDS011;15453;53.692;10.168;2022-12-01T05:10:59;102.90;;;50.55;;
27985;SDS011;15453;53.692;10.168;2022-12-01T05:13:25;105.72;;;50.78;;
27985;SDS011;15453;53.692;10.168;2022-12-01T05:15:51;100.10;;;48.83;;
27985;SDS011;15453;53.692;10.168;2022-12-01T05:18:17;104.40;;;51.67;;
27985;SDS011;15453;53.692;10.168;2022-12-01T05:20:42;102.80;;;51.15;;
27985;SDS011;15453;53.692;10.168;2022-12-01T05:23:26;105.65;;;51.53;;
27985;SDS011;15453;53.692;10.168;2022-12-01T05:25:53;105.55;;;51.60;;
27985;SDS011;15453;53.692;10.168;2022-12-01T05:28:19;95.72;;;48.60;;
27985;SDS011;15453;53.692;10.168;2022-12-01T05:30:45;99.18;;;48.15;;
27985;SDS011;15453;53.692;10.168;2022-12-01T05:33:10;95.50;;;45.83;;
27985;SDS011;15453;53.692;10.168;2022-12-01T05:35:36;93.20;;;46.90;;
27985;SDS011;15453;53.692;10.168;2022-12-01T05:38:02;102.38;;;49.60;;
27985;SDS011;15453;53.692;10.168;2022-12-01T05:40:27;106.18;;;50.25;;
27985;SDS011;15453;53.692;10.168;2022-12-01T05:42:52;103.72;;;47.38;;
27985;SDS011;15453;53.692;10.168;2022-12-01T05:45:17;98.72;;;47.67;;
27985;SDS011;15453;53.692;10.168;2022-12-01T05:47:43;93.28;;;46.88;;
27985;SDS011;15453;53.692;10.168;2022-12-01T05:50:08;101.68;;;49.17;;
27985;SDS011;15453;53.692;10.168;2022-12-01T05:52:34;93.65;;;45.15;;
27985;SDS011;15453;53.692;10.168;2022-12-01T05:55:00;95.13;;;46.67;;
27985;SDS011;15453;53.692;10.168;2022-12-01T05:57:25;104.40;;;52.67;;
27985;SDS011;15453;53.692;10.168;2022-12-01T05:59:51;106.18;;;51.45;;
27985;SDS011;15453;53.692;10.168;2022-12-01T06:02:16;106.82;;;52.22;;
27985;SDS011;15453;53.692;10.168;2022-12-01T06:04:41;106.68;;;51.92;;
27985;SDS011;15453;53.692;10.168;2022-12-01T06:07:07;103.05;;;50.45;;
27985;SDS011;15453;53.692;10.168;2022-12-01T06:09:32;101.40;;;50.13;;
27985;SDS011;15453;53.692;10.168;2022-12-01T06:11:57;108.18;;;51.55;;
27985;SDS011;15453;53.692;10.168;2022-12-01T06:14:22;102.03;;;49.97;;
27985;SDS011;15453;53.692;10.168;2022-12-01T06:16:48;109.97;;;51.85;;
27985;SDS011;15453;53.692;10.168;2022-12-01T06:19:13;103.43;;;49.05;;
27985;SDS011;15453;53.692;10.168;2022-12-01T06:21:38;97.85;;;47.17;;
27985;SDS011;15453;53.692;10.168;2022-12-01T06:24:03;102.53;;;49.13;;
27985;SDS011;15453;53.692;10.168;2022-12-01T06:26:29;107.60;;;52.30;;
27985;SDS011;15453;53.692;10.168;2022-12-01T06:28:54;104.43;;;49.10;;
27985;SDS011;15453;53.692;10.168;2022-12-01T06:31:20;100.50;;;50.78;;
27985;SDS011;15453;53.692;10.168;2022-12-01T06:33:45;103.75;;;50.08;;
27985;SDS011;15453;53.692;10.168;2022-12-01T06:36:10;99.50;;;48.13;;
27985;SDS011;15453;53.692;10.168;2022-12-01T06:38:36;102.88;;;49.97;;
27985;SDS011;15453;53.692;10.168;2022-12-01T06:41:01;99.07;;;47.60;;
27985;SDS011;15453;53.692;10.168;2022-12-01T06:43:27;100.53;;;49.67;;
27985;SDS011;15453;53.692;10.168;2022-12-01T06:45:53;97.68;;;49.05;;
27985;SDS011;15453;53.692;10.168;2022-12-01T06:48:18;94.95;;;46.60;;
27985;SDS011;15453;53.692;10.168;2022-12-01T06:50:44;94.32;;;46.88;;
27985;SDS011;15453;53.692;10.168;2022-12-01T06:53:09;96.75;;;47.30;;
27985;SDS011;15453;53.692;10.168;2022-12-01T06:55:35;100.22;;;49.20;;
27985;SDS011;15453;53.692;10.168;2022-12-01T06:58:02;98.10;;;48.90;;
27985;SDS011;15453;53.692;10.168;2022-12-01T07:00:27;101.05;;;47.22;;
27985;SDS011;15453;53.692;10.168;2022-12-01T07:02:53;104.13;;;50.63;;
27985;SDS011;15453;53.692;10.168;2022-12-01T07:05:18;102.60;;;49.72;;
27985;SDS011;15453;53.692;10.168;2022-12-01T07:07:43;99.80;;;48.78;;
27985;SDS011;15453;53.692;10.168;2022-12-01T07:10:09;101.07;;;49.90;;
27985;SDS011;15453;53.692;10.168;2022-12-01T07:12:35;106.93;;;52.28;;
27985;SDS011;15453;53.692;10.168;2022-12-01T07:15:00;104.38;;;49.53;;
27985;SDS011;15453;53.692;10.168;2022-12-01T07:17:26;108.50;;;51.10;;
27985;SDS011;15453;53.692;10.168;2022-12-01T07:19:51;102.82;;;51.33;;
27985;SDS011;15453;53.692;10.168;2022-12-01T07:22:17;107.53;;;52.10;;
27985;SDS011;15453;53.692;10.168;2022-12-01T07:24:43;103.72;;;49.85;;
27985;SDS011;15453;53.692;10.168;2022-12-01T07:27:08;94.72;;;45.35;;
27985;SDS011;15453;53.692;10.168;2022-12-01T07:29:33;100.68;;;47.92;;
27985;SDS011;15453;53.692;10.168;2022-12-01T07:31:58;94.75;;;46.30;;
27985;SDS011;15453;53.692;10.168;2022-12-01T07:34:23;99.80;;;47.42;;
27985;SDS011;15453;53.692;10.168;2022-12-01T07:36:49;89.50;;;44.28;;
27985;SDS011;15453;53.692;10.168;2022-12-01T07:39:14;100.65;;;48.13;;
27985;SDS011;15453;53.692;10.168;2022-12-01T07:41:39;97.53;;;45.92;;
27985;SDS011;15453;53.692;10.168;2022-12-01T07:44:05;97.65;;;48.33;;
27985;SDS011;15453;53.692;10.168;2022-12-01T07:46:30;91.70;;;43.40;;
27985;SDS011;15453;53.692;10.168;2022-12-01T07:48:56;101.18;;;48.67;;
27985;SDS011;15453;53.692;10.168;2022-12-01T07:51:22;102.28;;;46.03;;
27985;SDS011;15453;53.692;10.168;2022-12-01T07:53:49;105.00;;;48.13;;
27985;SDS011;15453;53.692;10.168;2022-12-01T07:56:15;95.30;;;46.78;;
27985;SDS011;15453;53.692;10.168;2022-12-01T07:58:41;86.95;;;43.10;;
27985;SDS011;15453;53.692;10.168;2022-12-01T08:01:13;97.63;;;47.30;;
27985;SDS011;15453;53.692;10.168;2022-12-01T08:03:41;92.60;;;43.65;;
27985;SDS011;15453;53.692;10.168;2022-12-01T08:06:07;95.88;;;44.05;;
27985;SDS011;15453;53.692;10.168;2022-12-01T08:08:33;100.53;;;46.92;;
27985;SDS011;15453;53.692;10.168;2022-12-01T08:11:03;89.82;;;45.58;;
27985;SDS011;15453;53.692;10.168;2022-12-01T08:13:31;97.45;;;46.70;;
27985;SDS011;15453;53.692;10.168;2022-12-01T08:15:56;98.05;;;47.53;;
27985;SDS011;15453;53.692;10.168;2022-12-01T08:18:22;98.00;;;45.78;;
27985;SDS011;15453;53.692;10.168;2022-12-01T08:20:48;95.15;;;45.88;;
27985;SDS011;15453;53.692;10.168;2022-12-01T08:23:14;89.53;;;42.80;;
27985;SDS011;15453;53.692;10.168;2022-12-01T08:25:39;97.78;;;47.22;;
27985;SDS011;15453;53.692;10.168;2022-12-01T08:28:04;89.82;;;43.88;;
27985;SDS011;15453;53.692;10.168;2022-12-01T08:30:29;86.25;;;41.53;;
27985;SDS011;15453;53.692;10.168;2022-12-01T08:32:55;85.85;;;43.78;;
27985;SDS011;15453;53.692;10.168;2022-12-01T08:35:21;84.10;;;42.00;;
27985;SDS011;15453;53.692;10.168;2022-12-01T08:37:50;92.72;;;45.67;;
27985;SDS011;15453;53.692;10.168;2022-12-01T08:40:15;95.20;;;45.90;;
27985;SDS011;15453;53.692;10.168;2022-12-01T08:42:41;94.15;;;45.88;;
27985;SDS011;15453;53.692;10.168;2022-12-01T08:45:06;96.53;;;44.80;;
27985;SDS011;15453;53.692;10.168;2022-12-01T08:47:32;90.85;;;44.17;;
27985;SDS011;15453;53.692;10.168;2022-12-01T08:49:57;92.53;;;43.80;;
27985;SDS011;15453;53.692;10.168;2022-12-01T08:52:22;91.68;;;43.83;;
27985;SDS011;15453;53.692;10.168;2022-12-01T08:54:47;89.45;;;42.20;;
27985;SDS011;15453;53.692;10.168;2022-12-01T08:57:12;94.80;;;44.45;;
27985;SDS011;15453;53.692;10.168;2022-12-01T08:59:38;95.93;;;45.45;;
27985;SDS011;15453;53.692;10.168;2022-12-01T09:02:03;94.75;;;44.90;;
27985;SDS011;15453;53.692;10.168;2022-12-01T09:04:30;87.65;;;42.53;;
27985;SDS011;15453;53.692;10.168;2022-12-01T09:06:56;81.97;;;40.33;;
27985;SDS011;15453;53.692;10.168;2022-12-01T09:09:23;83.65;;;41.25;;
27985;SDS011;15453;53.692;10.168;2022-12-01T09:11:49;90.55;;;42.15;;
27985;SDS011;15453;53.692;10.168;2022-12-01T09:14:16;84.05;;;40.45;;
27985;SDS011;15453;53.692;10.168;2022-12-01T09:16:43;86.13;;;41.22;;
27985;SDS011;15453;53.692;10.168;2022-12-01T09:19:10;82.82;;;40.95;;
27985;SDS011;15453;53.692;10.168;2022-12-01T09:21:35;88.78;;;42.40;;
27985;SDS011;15453;53.692;10.168;2022-12-01T09:24:03;83.82;;;39.42;;
27985;SDS011;15453;53.692;10.168;2022-12-01T09:26:30;75.78;;;37.20;;
27985;SDS011;15453;53.692;10.168;2022-12-01T09:28:57;77.70;;;36.63;;
27985;SDS011;15453;53.692;10.168;2022-12-01T09:31:24;76.75;;;36.08;;
27985;SDS011;15453;53.692;10.168;2022-12-01T09:33:56;69.85;;;33.22;;
27985;SDS011;15453;53.692;10.168;2022-12-01T09:36:23;73.88;;;35.15;;
27985;SDS011;15453;53.692;10.168;2022-12-01T09:38:49;67.85;;;32.47;;
27985;SDS011;15453;53.692;10.168;2022-12-01T09:41:16;76.68;;;35.00;;
27985;SDS011;15453;53.692;10.168;2022-12-01T09:43:47;79.18;;;34.72;;
27985;SDS011;15453;53.692;10.168;2022-12-01T09:46:39;64.75;;;30.70;;
27985;SDS011;15453;53.692;10.168;2022-12-01T09:49:11;67.07;;;31.27;;
27985;SDS011;15453;53.692;10.168;2022-12-01T09:51:43;76.57;;;32.90;;
27985;SDS011;15453;53.692;10.168;2022-12-01T09:54:09;76.97;;;34.88;;
27985;SDS011;15453;53.692;10.168;2022-12-01T09:56:44;76.37;;;33.53;;
27985;SDS011;15453;53.692;10.168;2022-12-01T09:59:15;66.07;;;29.58;;
27985;SDS011;15453;53.692;10.168;2022-12-01T10:01:46;72.60;;;31.60;;
27985;SDS011;15453;53.692;10.168;2022-12-01T10:04:16;70.20;;;31.98;;
27985;SDS011;15453;53.692;10.168;2022-12-01T10:11:49;79.05;;;34.05;;
27985;SDS011;15453;53.692;10.168;2022-12-01T10:14:18;81.80;;;35.38;;
27985;SDS011;15453;53.692;10.168;2022-12-01T10:16:51;86.47;;;33.88;;
27985;SDS011;15453;53.692;10.168;2022-12-01T10:22:24;72.22;;;30.10;;
27985;SDS011;15453;53.692;10.168;2022-12-01T10:27:42;72.60;;;30.35;;
27985;SDS011;15453;53.692;10.168;2022-12-01T10:30:17;68.43;;;28.65;;
27985;SDS011;15453;53.692;10.168;2022-12-01T10:35:28;71.50;;;28.45;;
27985;SDS011;15453;53.692;10.168;2022-12-01T10:38:00;65.97;;;27.88;;
27985;SDS011;15453;53.692;10.168;2022-12-01T10:40:29;61.17;;;27.30;;
27985;SDS011;15453;53.692;10.168;2022-12-01T10:42:59;60.85;;;24.75;;
27985;SDS011;15453;53.692;10.168;2022-12-01T10:45:25;57.95;;;24.50;;
27985;SDS011;15453;53.692;10.168;2022-12-01T10:48:08;64.85;;;27.17;;
27985;SDS011;15453;53.692;10.168;2022-12-01T10:50:40;67.60;;;27.05;;
27985;SDS011;15453;53.692;10.168;2022-12-01T10:58:50;64.05;;;24.55;;
27985;SDS011;15453;53.692;10.168;2022-12-01T11:03:51;42.47;;;20.40;;
27985;SDS011;15453;53.692;10.168;2022-12-01T11:06:22;52.85;;;24.00;;
27985;SDS011;15453;53.692;10.168;2022-12-01T11:08:55;55.15;;;23.85;;
27985;SDS011;15453;53.692;10.168;2022-12-01T11:11:23;52.22;;;23.13;;
27985;SDS011;15453;53.692;10.168;2022-12-01T11:13:59;48.97;;;21.88;;
27985;SDS011;15453;53.692;10.168;2022-12-01T11:16:37;41.38;;;20.17;;
27985;SDS011;15453;53.692;10.168;2022-12-01T11:21:48;45.13;;;19.70;;
27985;SDS011;15453;53.692;10.168;2022-12-01T11:24:20;44.85;;;20.15;;
27985;SDS011;15453;53.692;10.168;2022-12-01T11:27:09;43.08;;;19.38;;
27985;SDS011;15453;53.692;10.168;2022-12-01T11:29:39;40.63;;;19.00;;
27985;SDS011;15453;53.692;10.168;2022-12-01T11:32:21;41.72;;;19.27;;
27985;SDS011;15453;53.692;10.168;2022-12-01T11:34:53;45.67;;;20.67;;
27985;SDS011;15453;53.692;10.168;2022-12-01T11:37:21;50.10;;;21.45;;
27985;SDS011;15453;53.692;10.168;2022-12-01T11:39:48;39.42;;;19.17;;
27985;SDS011;15453;53.692;10.168;2022-12-01T11:42:19;47.83;;;19.80;;
27985;SDS011;15453;53.692;10.168;2022-12-01T11:44:50;52.10;;;21.60;;
27985;SDS011;15453;53.692;10.168;2022-12-01T11:47:20;55.97;;;22.15;;
27985;SDS011;15453;53.692;10.168;2022-12-01T11:49:50;55.45;;;22.33;;
27985;SDS011;15453;53.692;10.168;2022-12-01T11:52:28;58.97;;;23.70;;
27985;SDS011;15453;53.692;10.168;2022-12-01T11:57:36;56.40;;;24.40;;
27985;SDS011;15453;53.692;10.168;2022-12-01T12:00:11;63.35;;;25.30;;
27985;SDS011;15453;53.692;10.168;2022-12-01T12:08:42;59.00;;;23.77;;
27985;SDS011;15453;53.692;10.168;2022-12-01T12:11:23;63.75;;;25.80;;
27985;SDS011;15453;53.692;10.168;2022-12-01T12:14:05;58.65;;;23.60;;
27985;SDS011;15453;53.692;10.168;2022-12-01T12:16:46;58.60;;;23.92;;
27985;SDS011;15453;53.692;10.168;2022-12-01T12:22:20;54.50;;;20.00;;
27985;SDS011;15453;53.692;10.168;2022-12-01T12:24:59;55.35;;;22.00;;
27985;SDS011;15453;53.692;10.168;2022-12-01T12:41:44;61.35;;;23.15;;
27985;SDS011;15453;53.692;10.168;2022-12-01T12:47:07;71.38;;;26.55;;
27985;SDS011;15453;53.692;10.168;2022-12-01T12:52:17;73.20;;;27.30;;
27985;SDS011;15453;53.692;10.168;2022-12-01T12:57:27;66.22;;;25.10;;
27985;SDS011;15453;53.692;10.168;2022-12-01T12:59:58;63.13;;;23.52;;
27985;SDS011;15453;53.692;10.168;2022-12-01T13:02:32;66.20;;;23.95;;
27985;SDS011;15453;53.692;10.168;2022-12-01T13:05:07;59.08;;;22.08;;
27985;SDS011;15453;53.692;10.168;2022-12-01T13:07:43;64.47;;;22.90;;
27985;SDS011;15453;53.692;10.168;2022-12-01T13:12:47;63.70;;;22.40;;
27985;SDS011;15453;53.692;10.168;2022-12-01T13:15:22;67.78;;;23.40;;
27985;SDS011;15453;53.692;10.168;2022-12-01T13:18:00;67.80;;;24.77;;
27985;SDS011;15453;53.692;10.168;2022-12-01T13:20:32;60.75;;;22.55;;
27985;SDS011;15453;53.692;10.168;2022-12-01T13:22:59;70.53;;;25.30;;
27985;SDS011;15453;53.692;10.168;2022-12-01T13:25:27;65.78;;;25.27;;
27985;SDS011;15453;53.692;10.168;2022-12-01T13:27:59;66.10;;;23.77;;
27985;SDS011;15453;53.692;10.168;2022-12-01T13:30:28;67.65;;;23.00;;
27985;SDS011;15453;53.692;10.168;2022-12-01T13:33:00;58.50;;;21.13;;
27985;SDS011;15453;53.692;10.168;2022-12-01T13:35:37;54.60;;;20.77;;
27985;SDS011;15453;53.692;10.168;2022-12-01T13:41:13;54.58;;;20.48;;
27985;SDS011;15453;53.692;10.168;2022-12-01T13:44:06;58.90;;;21.35;;
27985;SDS011;15453;53.692;10.168;2022-12-01T13:49:31;51.33;;;19.90;;
27985;SDS011;15453;53.692;10.168;2022-12-01T13:57:35;41.63;;;17.15;;
27985;SDS011;15453;53.692;10.168;2022-12-01T14:02:45;41.25;;;16.67;;
27985;SDS011;15453;53.692;10.168;2022-12-01T14:08:24;32.75;;;15.77;;
27985;SDS011;15453;53.692;10.168;2022-12-01T14:11:36;38.05;;;16.73;;
27985;SDS011;15453;53.692;10.168;2022-12-01T14:13:48;33.42;;;15.60;;
27985;SDS011;15453;53.692;10.168;2022-12-01T14:16:17;35.65;;;15.27;;
27985;SDS011;15453;53.692;10.168;2022-12-01T14:18:47;30.33;;;14.07;;
27985;SDS011;15453;53.692;10.168;2022-12-01T14:21:15;30.40;;;14.02;;
27985;SDS011;15453;53.692;10.168;2022-12-01T14:23:58;29.13;;;13.95;;
27985;SDS011;15453;53.692;10.168;2022-12-01T14:26:25;27.25;;;13.38;;
27985;SDS011;15453;53.692;10.168;2022-12-01T14:32:18;33.20;;;16.20;;
27985;SDS011;15453;53.692;10.168;2022-12-01T14:34:17;31.77;;;14.88;;
27985;SDS011;15453;53.692;10.168;2022-12-01T14:36:48;30.40;;;14.15;;
27985;SDS011;15453;53.692;10.168;2022-12-01T14:39:17;31.88;;;15.65;;
27985;SDS011;15453;53.692;10.168;2022-12-01T14:41:46;29.60;;;14.80;;
27985;SDS011;15453;53.692;10.168;2022-12-01T14:54:50;30.13;;;15.55;;
27985;SDS011;15453;53.692;10.168;2022-12-01T14:57:19;27.67;;;13.38;;
27985;SDS011;15453;53.692;10.168;2022-12-01T15:00:00;30.25;;;15.15;;
27985;SDS011;15453;53.692;10.168;2022-12-01T15:02:28;29.23;;;14.82;;
27985;SDS011;15453;53.692;10.168;2022-12-01T15:05:14;28.88;;;13.57;;
27985;SDS011;15453;53.692;10.168;2022-12-01T15:07:42;27.55;;;13.68;;
27985;SDS011;15453;53.692;10.168;2022-12-01T15:10:22;29.45;;;14.90;;
27985;SDS011;15453;53.692;10.168;2022-12-01T15:12:51;27.17;;;13.40;;
27985;SDS011;15453;53.692;10.168;2022-12-01T15:17:50;28.58;;;14.15;;
27985;SDS011;15453;53.692;10.168;2022-12-01T15:20:25;26.95;;;13.63;;
27985;SDS011;15453;53.692;10.168;2022-12-01T15:22:53;25.00;;;12.43;;
27985;SDS011;15453;53.692;10.168;2022-12-01T15:25:19;23.88;;;13.00;;
27985;SDS011;15453;53.692;10.168;2022-12-01T15:27:45;27.75;;;14.57;;
27985;SDS011;15453;53.692;10.168;2022-12-01T15:30:13;28.35;;;14.77;;
27985;SDS011;15453;53.692;10.168;2022-12-01T15:32:39;24.90;;;13.38;;
27985;SDS011;15453;53.692;10.168;2022-12-01T15:35:17;22.60;;;12.73;;
27985;SDS011;15453;53.692;10.168;2022-12-01T15:37:44;26.38;;;13.48;;
27985;SDS011;15453;53.692;10.168;2022-12-01T15:40:11;25.00;;;12.57;;
27985;SDS011;15453;53.692;10.168;2022-12-01T15:42:41;23.58;;;12.13;;
27985;SDS011;15453;53.692;10.168;2022-12-01T15:45:17;28.25;;;12.82;;
27985;SDS011;15453;53.692;10.168;2022-12-01T15:47:45;26.23;;;12.88;;
27985;SDS011;15453;53.692;10.168;2022-12-01T15:53:06;22.02;;;12.32;;
27985;SDS011;15453;53.692;10.168;2022-12-01T15:55:44;24.77;;;13.20;;
27985;SDS011;15453;53.692;10.168;2022-12-01T15:58:15;25.30;;;12.93;;
27985;SDS011;15453;53.692;10.168;2022-12-01T16:00:55;24.10;;;12.88;;
27985;SDS011;15453;53.692;10.168;2022-12-01T16:03:23;25.70;;;13.48;;
27985;SDS011;15453;53.692;10.168;2022-12-01T16:05:49;27.63;;;13.63;;
27985;SDS011;15453;53.692;10.168;2022-12-01T16:08:18;26.27;;;13.93;;
27985;SDS011;15453;53.692;10.168;2022-12-01T16:10:45;28.83;;;14.32;;
27985;SDS011;15453;53.692;10.168;2022-12-01T16:13:34;31.13;;;15.18;;
27985;SDS011;15453;53.692;10.168;2022-12-01T16:16:18;26.80;;;14.15;;
27985;SDS011;15453;53.692;10.168;2022-12-01T16:18:54;29.92;;;15.60;;